Time;durP1;ratioP1;P1;durP2;ratioP2;P2;SDS_P1;SDS_P2;PMS_P1;PMS_P2;Temp;Humidity;BMP_temperature;BMP_pressure;BME280_temperature;BME280_humidity;BME280_pressure;Samples;Min_cycle;Max_cycle;Signal;HPM_P1;HPM_P2
2021/12/04 00:02:00;;;;;;;30.42;15.60;;;5.10;99.90;;;;;;5070268;28;20055;-63
2021/12/04 00:04:37;;;;;;;34.60;15.32;;;5.10;99.90;;;;;;5070281;28;20638;-63
2021/12/04 00:07:04;;;;;;;27.90;15.10;;;5.10;99.90;;;;;;5070261;28;20056;-63
2021/12/04 00:09:30;;;;;;;32.95;17.40;;;5.10;99.90;;;;;;5070165;28;20116;-63
2021/12/04 00:12:01;;;;;;;38.50;16.63;;;5.10;99.90;;;;;;5070003;28;20445;-63
2021/12/04 00:14:27;;;;;;;35.67;15.40;;;5.10;99.90;;;;;;5070335;28;20111;-63
2021/12/04 00:16:53;;;;;;;26.38;12.90;;;5.10;99.90;;;;;;5070167;28;20115;-63
2021/12/04 00:19:19;;;;;;;35.70;18.42;;;5.10;99.90;;;;;;5070091;28;20056;-63
2021/12/04 00:21:45;;;;;;;27.67;14.32;;;5.10;99.90;;;;;;5070038;28;20040;-63
2021/12/04 00:24:11;;;;;;;31.98;16.80;;;5.10;99.90;;;;;;5069655;28;20032;-63
2021/12/04 00:26:37;;;;;;;29.70;14.32;;;5.10;99.90;;;;;;5069765;28;20525;-63
2021/12/04 00:29:03;;;;;;;30.48;16.48;;;5.10;99.90;;;;;;5069884;28;20062;-63
2021/12/04 00:31:28;;;;;;;33.05;16.08;;;5.10;99.90;;;;;;5070001;28;20051;-63
2021/12/04 00:33:54;;;;;;;31.92;15.25;;;5.10;99.90;;;;;;5069712;28;20044;-63
2021/12/04 00:36:58;;;;;;;34.67;16.92;;;5.10;99.90;;;;;;5069687;28;20045;-63
2021/12/04 00:50:06;;;;;;;28.60;14.52;;;5.10;99.90;;;;;;5069838;28;20413;-63
2021/12/04 00:52:32;;;;;;;30.88;16.15;;;5.10;99.90;;;;;;5069525;28;20040;-63
2021/12/04 00:54:57;;;;;;;26.33;14.10;;;5.10;99.90;;;;;;5069638;28;20040;-63
2021/12/04 00:57:23;;;;;;;28.25;14.18;;;5.10;99.90;;;;;;5069411;28;20422;-63
2021/12/04 00:59:49;;;;;;;27.15;14.65;;;5.10;99.90;;;;;;5069684;28;20037;-63
2021/12/04 01:02:17;;;;;;;28.45;15.32;;;5.10;99.90;;;;;;5069557;28;20032;-63
2021/12/04 01:04:43;;;;;;;28.70;14.85;;;5.10;99.90;;;;;;5069641;28;20106;-63
2021/12/04 01:07:08;;;;;;;24.02;13.57;;;5.10;99.90;;;;;;5069410;28;20482;-63
2021/12/04 01:09:34;;;;;;;26.45;14.77;;;5.10;99.90;;;;;;5051593;28;20044;-63
2021/12/04 01:12:00;;;;;;;27.52;15.52;;;5.10;99.90;;;;;;5070581;28;20040;-63
2021/12/04 01:14:27;;;;;;;27.52;14.60;;;5.10;99.90;;;;;;5073297;28;20039;-63
2021/12/04 01:16:53;;;;;;;26.95;14.60;;;5.10;99.90;;;;;;5073424;28;20032;-63
2021/12/04 01:19:19;;;;;;;25.08;15.32;;;5.10;99.90;;;;;;5073565;28;20036;-63
2021/12/04 01:21:49;;;;;;;25.65;14.27;;;5.10;99.90;;;;;;5073478;28;20570;-63
2021/12/04 01:24:16;;;;;;;28.92;14.30;;;5.10;99.90;;;;;;5073329;28;20044;-63
2021/12/04 01:26:41;;;;;;;27.50;14.75;;;5.10;99.90;;;;;;5072783;28;20452;-63
2021/12/04 01:29:07;;;;;;;23.42;13.50;;;5.10;99.90;;;;;;5073068;28;20045;-63
2021/12/04 01:31:33;;;;;;;24.65;14.32;;;5.10;99.90;;;;;;5073369;28;20032;-63
2021/12/04 01:33:58;;;;;;;25.35;14.32;;;5.10;99.90;;;;;;5073109;28;20603;-63
2021/12/04 01:36:24;;;;;;;26.33;13.65;;;5.10;99.90;;;;;;5072980;28;20032;-63
2021/12/04 01:38:51;;;;;;;20.55;12.57;;;5.10;99.90;;;;;;5073098;28;20050;-63
2021/12/04 01:41:17;;;;;;;22.45;13.30;;;5.10;99.90;;;;;;5072873;28;20505;-63
2021/12/04 01:43:42;;;;;;;22.63;12.40;;;5.10;99.90;;;;;;5073015;28;20055;-63
2021/12/04 01:46:08;;;;;;;22.83;12.40;;;5.10;99.90;;;;;;5072908;28;20036;-63
2021/12/04 01:48:34;;;;;;;23.67;13.07;;;5.10;99.90;;;;;;5072772;28;20569;-63
2021/12/04 01:51:00;;;;;;;22.20;13.48;;;5.00;99.90;;;;;;5072759;28;20037;-63
2021/12/04 01:53:26;;;;;;;18.92;12.02;;;5.00;99.90;;;;;;5072834;28;20040;-63
2021/12/04 01:55:53;;;;;;;20.30;12.73;;;5.00;99.90;;;;;;5054529;28;20110;-63
2021/12/04 01:58:19;;;;;;;17.25;10.77;;;5.00;99.90;;;;;;5072836;28;20044;-63
2021/12/04 02:00:45;;;;;;;19.02;10.85;;;5.00;99.90;;;;;;5072789;28;20076;-63
2021/12/04 02:03:13;;;;;;;20.05;12.45;;;5.00;99.90;;;;;;5072699;28;20096;-63
2021/12/04 02:05:40;;;;;;;21.35;13.55;;;5.00;99.90;;;;;;5072380;28;20382;-63
2021/12/04 02:08:07;;;;;;;17.60;11.55;;;5.00;99.90;;;;;;5072557;28;20044;-63
2021/12/04 02:10:34;;;;;;;20.70;11.15;;;5.00;99.90;;;;;;5072275;28;20044;-63
2021/12/04 02:13:00;;;;;;;17.90;10.73;;;5.00;99.90;;;;;;5072383;28;20036;-63
2021/12/04 02:15:26;;;;;;;18.13;10.90;;;5.00;99.90;;;;;;5072513;28;20050;-63
2021/12/04 02:17:52;;;;;;;14.73;9.52;;;5.00;99.90;;;;;;5072279;28;20581;-63
2021/12/04 02:20:23;;;;;;;16.23;10.10;;;5.00;99.90;;;;;;5072272;28;20107;-63
2021/12/04 02:22:49;;;;;;;16.98;10.50;;;5.00;99.90;;;;;;5071499;28;20066;-63
2021/12/04 02:25:16;;;;;;;15.50;9.55;;;5.00;99.90;;;;;;5071932;28;20155;-63
2021/12/04 02:27:42;;;;;;;15.10;9.57;;;5.00;99.90;;;;;;5087477;22;20040;-60
2021/12/04 02:30:13;;;;;;;16.23;9.57;;;5.00;99.90;;;;;;5072033;28;20536;-60
2021/12/04 02:32:39;;;;;;;15.32;9.43;;;5.00;99.90;;;;;;5071847;28;20036;-60
2021/12/04 02:35:06;;;;;;;15.15;9.80;;;5.00;99.90;;;;;;5072060;28;20032;-60
2021/12/04 02:37:36;;;;;;;14.68;9.77;;;5.00;99.90;;;;;;5071831;28;20513;-60
2021/12/04 02:40:03;;;;;;;14.35;9.13;;;5.00;99.90;;;;;;5071942;28;20048;-60
2021/12/04 02:42:30;;;;;;;16.13;9.68;;;5.00;99.90;;;;;;5071701;28;20446;-60
2021/12/04 02:44:58;;;;;;;14.43;9.88;;;5.00;99.90;;;;;;5071888;28;20040;-60
2021/12/04 02:47:25;;;;;;;17.25;9.75;;;5.00;99.90;;;;;;5071648;28;20455;-60
2021/12/04 02:49:51;;;;;;;16.08;9.55;;;5.00;99.90;;;;;;5071777;28;20082;-60
2021/12/04 02:52:18;;;;;;;17.48;10.43;;;5.00;99.90;;;;;;5071245;28;20040;-60
2021/12/04 02:54:43;;;;;;;15.73;10.00;;;5.00;99.90;;;;;;5071747;28;20033;-60
2021/12/04 02:57:12;;;;;;;14.77;9.48;;;5.00;99.90;;;;;;5071599;28;20541;-60
2021/12/04 02:59:39;;;;;;;15.32;8.93;;;5.00;99.90;;;;;;5071778;28;20045;-60
2021/12/04 03:02:07;;;;;;;16.10;9.95;;;5.00;99.90;;;;;;5071284;28;20072;-60
2021/12/04 03:04:32;;;;;;;15.07;10.65;;;5.00;99.90;;;;;;5071285;28;20111;-60
2021/12/04 03:06:58;;;;;;;16.45;9.77;;;5.00;99.90;;;;;;5071273;28;20119;-60
2021/12/04 03:09:24;;;;;;;17.70;11.32;;;5.00;99.90;;;;;;5071222;28;20501;-60
2021/12/04 03:11:50;;;;;;;14.70;8.90;;;5.00;99.90;;;;;;5071493;28;20033;-61
2021/12/04 03:14:17;;;;;;;16.15;10.43;;;4.90;99.90;;;;;;5071229;28;20464;-60
2021/12/04 03:16:43;;;;;;;14.05;9.02;;;4.90;99.90;;;;;;5070966;28;20411;-60
2021/12/04 03:19:09;;;;;;;15.23;9.20;;;4.90;99.90;;;;;;5071039;28;20048;-60
2021/12/04 03:21:37;;;;;;;15.88;9.30;;;5.00;99.90;;;;;;5071325;28;20156;-60
2021/12/04 03:24:06;;;;;;;14.52;9.38;;;4.90;99.90;;;;;;5070955;28;20036;-60
2021/12/04 03:26:32;;;;;;;15.38;9.43;;;4.90;99.90;;;;;;5052693;28;20052;-60
2021/12/04 03:29:03;;;;;;;15.82;8.68;;;4.90;99.90;;;;;;5070943;28;20070;-60
2021/12/04 03:42:26;;;;;;;15.88;10.02;;;4.90;99.90;;;;;;5050860;28;20044;-60
2021/12/04 03:44:52;;;;;;;14.23;8.98;;;4.90;99.90;;;;;;5050796;28;20107;-60
2021/12/04 03:47:20;;;;;;;15.57;9.90;;;4.90;99.90;;;;;;5050516;28;20702;-60
2021/12/04 03:49:46;;;;;;;15.38;10.23;;;4.90;99.90;;;;;;5050589;28;20037;-61
2021/12/04 03:52:13;;;;;;;16.05;9.75;;;4.90;99.90;;;;;;5050265;28;20037;-60
2021/12/04 03:54:38;;;;;;;17.33;10.40;;;4.90;99.90;;;;;;5032671;28;20045;-60
2021/12/04 03:57:05;;;;;;;16.52;10.48;;;4.90;99.90;;;;;;5050533;28;20041;-60
2021/12/04 03:59:32;;;;;;;15.10;9.38;;;4.90;99.90;;;;;;5050501;28;20099;-60
2021/12/04 04:01:58;;;;;;;18.45;9.85;;;4.90;99.90;;;;;;5050237;28;20134;-60
2021/12/04 04:04:24;;;;;;;14.73;10.45;;;4.90;99.90;;;;;;5050468;28;20495;-60
2021/12/04 04:06:49;;;;;;;15.55;10.15;;;4.80;99.90;;;;;;5050106;28;20068;-60
2021/12/04 04:09:15;;;;;;;16.25;10.35;;;4.90;99.90;;;;;;5049903;28;20056;-60
2021/12/04 04:11:41;;;;;;;16.08;10.13;;;4.90;99.90;;;;;;5050086;28;20086;-60
2021/12/04 04:14:07;;;;;;;16.35;9.90;;;4.90;99.90;;;;;;5031979;28;20063;-60
2021/12/04 04:16:39;;;;;;;13.98;9.00;;;4.90;99.90;;;;;;5049861;28;20560;-60
2021/12/04 04:19:05;;;;;;;15.10;9.02;;;4.90;99.90;;;;;;5050195;28;20098;-60
2021/12/04 04:21:31;;;;;;;16.40;9.63;;;4.90;99.90;;;;;;5049864;28;20036;-60
2021/12/04 04:23:57;;;;;;;15.75;9.65;;;4.90;99.90;;;;;;5049677;28;20047;-60
2021/12/04 04:26:22;;;;;;;15.93;10.43;;;4.90;99.90;;;;;;5050114;28;20040;-60
2021/12/04 04:28:48;;;;;;;15.18;9.48;;;4.90;99.90;;;;;;5049864;28;20119;-60
2021/12/04 04:31:14;;;;;;;15.90;10.07;;;4.90;99.90;;;;;;5052641;28;20044;-60
2021/12/04 04:33:43;;;;;;;14.73;9.13;;;4.90;99.90;;;;;;5069369;28;20075;-60
2021/12/04 04:36:21;;;;;;;16.52;9.57;;;4.90;99.90;;;;;;5069707;28;20033;-60
2021/12/04 05:13:44;;;;;;;14.70;8.80;;;4.90;99.90;;;;;;5069135;28;20040;-60
2021/12/04 05:16:14;;;;;;;14.05;8.60;;;4.90;99.90;;;;;;5069380;28;20045;-60
2021/12/04 05:18:45;;;;;;;16.33;9.15;;;5.00;99.90;;;;;;5069556;28;20398;-61
2021/12/04 05:21:12;;;;;;;14.52;9.10;;;5.00;99.90;;;;;;5069557;28;20104;-60
2021/12/04 05:23:46;;;;;;;16.35;8.93;;;5.00;99.90;;;;;;5069136;28;20032;-60
2021/12/04 05:26:17;;;;;;;17.35;9.50;;;5.00;99.90;;;;;;5069082;28;20044;-60
2021/12/04 05:28:43;;;;;;;15.20;8.98;;;5.00;99.90;;;;;;5069795;28;20529;-61
2021/12/04 05:31:09;;;;;;;13.55;8.40;;;5.00;99.90;;;;;;5067276;28;20086;-61
2021/12/04 05:33:35;;;;;;;15.32;9.20;;;5.00;99.90;;;;;;5049114;28;20041;-60
2021/12/04 05:36:01;;;;;;;16.15;9.25;;;5.10;99.90;;;;;;5049122;28;20128;-60
2021/12/04 05:38:27;;;;;;;15.15;9.38;;;5.10;99.90;;;;;;5049394;28;20077;-61
2021/12/04 05:40:53;;;;;;;15.02;8.95;;;5.10;99.90;;;;;;5049095;28;20092;-60
2021/12/04 05:43:22;;;;;;;15.80;9.48;;;5.00;99.90;;;;;;5049172;28;20059;-60
2021/12/04 05:45:57;;;;;;;14.35;9.45;;;5.10;99.90;;;;;;5049140;28;20495;-60
2021/12/04 05:56:19;;;;;;;15.63;9.00;;;5.00;99.90;;;;;;5049147;28;20098;-60
2021/12/04 05:58:45;;;;;;;15.20;8.98;;;5.00;99.90;;;;;;5051328;28;20037;-60
2021/12/04 06:01:11;;;;;;;16.30;9.38;;;5.00;99.90;;;;;;5052819;28;20116;-60
2021/12/04 06:03:37;;;;;;;16.90;9.00;;;5.10;99.90;;;;;;5052336;28;20647;-61
2021/12/04 06:06:03;;;;;;;14.02;8.45;;;5.10;99.90;;;;;;5052160;28;20048;-61
2021/12/04 06:08:29;;;;;;;16.23;9.65;;;5.10;99.90;;;;;;5052462;28;20450;-61
2021/12/04 06:10:56;;;;;;;16.60;9.70;;;5.00;99.90;;;;;;5052704;28;20607;-61
2021/12/04 06:13:23;;;;;;;17.95;9.77;;;5.00;99.90;;;;;;5052173;28;20041;-61
2021/12/04 06:15:49;;;;;;;18.30;9.77;;;5.10;99.90;;;;;;5034476;28;20123;-61
2021/12/04 06:18:15;;;;;;;17.30;10.00;;;5.00;99.90;;;;;;5052264;28;20119;-61
2021/12/04 06:23:26;;;;;;;17.30;10.15;;;5.10;99.90;;;;;;5052207;28;20507;-61
2021/12/04 06:25:51;;;;;;;17.05;9.95;;;5.10;99.90;;;;;;5052139;28;20088;-61
2021/12/04 06:28:17;;;;;;;20.17;11.27;;;5.00;99.90;;;;;;5051911;28;20114;-61
2021/12/04 06:30:43;;;;;;;18.65;10.65;;;5.00;99.90;;;;;;5051998;28;20116;-61
2021/12/04 06:33:11;;;;;;;18.42;9.85;;;5.00;99.90;;;;;;5067407;28;20153;-61
2021/12/04 06:35:40;;;;;;;19.92;10.60;;;5.10;99.90;;;;;;5051044;28;20052;-61
2021/12/04 06:38:07;;;;;;;19.45;10.90;;;5.10;99.90;;;;;;5069047;28;20070;-61
2021/12/04 06:40:33;;;;;;;20.73;10.70;;;5.10;99.90;;;;;;5051038;28;20040;-60
2021/12/04 06:43:00;;;;;;;21.50;11.55;;;5.10;99.90;;;;;;5068719;28;20040;-61
2021/12/04 06:45:29;;;;;;;20.92;11.55;;;5.10;99.90;;;;;;5068492;28;20087;-60
2021/12/04 06:47:58;;;;;;;22.17;11.38;;;5.10;99.90;;;;;;5068671;28;20051;-61
2021/12/04 06:50:34;;;;;;;20.35;10.80;;;5.10;99.90;;;;;;5068630;28;20036;-60
2021/12/04 06:53:05;;;;;;;22.67;11.20;;;5.10;99.90;;;;;;5068645;28;20044;-60
2021/12/04 06:55:37;;;;;;;20.17;11.07;;;5.10;99.90;;;;;;5050582;28;20036;-60
2021/12/04 06:58:03;;;;;;;21.77;11.70;;;5.10;99.90;;;;;;5068288;28;20072;-60
2021/12/04 07:00:30;;;;;;;22.80;12.18;;;5.10;99.90;;;;;;5068329;28;20075;-60
2021/12/04 07:02:56;;;;;;;21.95;11.95;;;5.10;99.90;;;;;;5068543;28;20044;-60
2021/12/04 07:05:21;;;;;;;20.05;11.73;;;5.20;99.90;;;;;;5068447;28;20033;-60
2021/12/04 07:07:47;;;;;;;24.35;12.35;;;5.10;99.90;;;;;;5067871;28;20548;-60
2021/12/04 07:10:13;;;;;;;22.25;12.45;;;5.20;99.90;;;;;;5068269;28;20036;-60
2021/12/04 07:12:38;;;;;;;22.92;12.57;;;5.20;99.90;;;;;;5067901;28;20036;-60
2021/12/04 07:15:04;;;;;;;25.83;12.43;;;5.20;99.90;;;;;;5050395;28;20044;-60
2021/12/04 07:17:30;;;;;;;22.42;11.65;;;5.20;99.90;;;;;;5068105;28;20036;-61
2021/12/04 07:19:55;;;;;;;27.27;13.10;;;5.20;99.90;;;;;;5067705;28;20043;-60
2021/12/04 07:22:21;;;;;;;23.48;12.48;;;5.20;99.90;;;;;;5067754;28;20048;-60
2021/12/04 07:24:47;;;;;;;22.98;12.88;;;5.20;99.90;;;;;;5050120;28;20047;-60
2021/12/04 07:27:13;;;;;;;26.70;13.10;;;5.20;99.90;;;;;;5067467;28;20048;-60
2021/12/04 07:29:38;;;;;;;23.83;12.18;;;5.20;99.90;;;;;;5067972;28;20752;-60
2021/12/04 07:32:04;;;;;;;24.55;12.45;;;5.20;99.90;;;;;;5057559;28;20033;-60
2021/12/04 07:34:30;;;;;;;28.10;12.57;;;5.30;99.90;;;;;;5045895;28;20120;-60
2021/12/04 07:36:55;;;;;;;25.63;12.65;;;5.20;99.90;;;;;;5045912;28;20124;-60
2021/12/04 07:39:21;;;;;;;22.63;12.23;;;5.30;99.90;;;;;;5047696;28;20049;-60
2021/12/04 07:41:46;;;;;;;31.65;13.02;;;5.30;99.90;;;;;;5029671;28;20510;-60
2021/12/04 07:44:12;;;;;;;31.85;12.82;;;5.30;99.90;;;;;;5047242;28;20047;-60
2021/12/04 07:46:39;;;;;;;28.55;11.70;;;5.30;99.90;;;;;;5029588;28;20037;-60
2021/12/04 07:49:05;;;;;;;30.42;12.80;;;5.30;99.90;;;;;;5047357;28;20052;-61
2021/12/04 07:51:31;;;;;;;26.05;12.43;;;5.30;99.90;;;;;;5047739;28;20044;-60
2021/12/04 07:53:56;;;;;;;30.45;12.80;;;5.30;99.90;;;;;;5047358;28;20056;-61
2021/12/04 07:56:22;;;;;;;26.58;12.18;;;5.30;99.90;;;;;;5047139;28;20043;-61
2021/12/04 07:58:48;;;;;;;33.13;12.52;;;5.30;99.90;;;;;;5047637;28;20203;-60
2021/12/04 08:01:13;;;;;;;25.70;12.57;;;5.40;99.90;;;;;;5047734;28;20041;-61
2021/12/04 08:03:39;;;;;;;28.30;13.23;;;5.40;99.90;;;;;;5047380;28;20457;-60
2021/12/04 08:06:05;;;;;;;28.55;12.50;;;5.40;99.90;;;;;;5047346;28;20041;-60
2021/12/04 08:08:31;;;;;;;29.10;12.65;;;5.40;99.90;;;;;;5046887;28;20076;-60
2021/12/04 08:10:57;;;;;;;27.10;12.10;;;5.40;99.90;;;;;;5047249;28;20052;-60
2021/12/04 08:13:23;;;;;;;29.02;12.15;;;5.40;99.90;;;;;;5047035;28;20069;-60
2021/12/04 08:15:49;;;;;;;24.23;11.18;;;5.40;99.90;;;;;;5047248;28;20081;-60
2021/12/04 08:18:14;;;;;;;27.98;12.18;;;5.50;99.90;;;;;;5047114;28;20037;-61
2021/12/04 08:20:40;;;;;;;26.88;12.20;;;5.50;99.90;;;;;;5046397;28;20493;-60
2021/12/04 08:23:06;;;;;;;23.05;11.60;;;5.50;99.90;;;;;;5047004;28;20033;-60
2021/12/04 08:25:32;;;;;;;20.92;10.77;;;5.50;99.90;;;;;;5046995;28;20537;-60
2021/12/04 08:27:59;;;;;;;23.65;12.02;;;5.50;99.90;;;;;;5046939;28;20037;-60
2021/12/04 08:30:30;;;;;;;23.00;11.50;;;5.50;99.90;;;;;;5047191;28;20045;-60
2021/12/04 08:32:56;;;;;;;23.35;11.52;;;5.50;99.90;;;;;;5046663;28;20040;-60
2021/12/04 08:35:25;;;;;;;28.13;11.65;;;5.60;99.90;;;;;;5046996;28;20044;-59
2021/12/04 08:37:54;;;;;;;24.25;11.77;;;5.60;99.90;;;;;;5029178;28;20075;-60
2021/12/04 08:40:20;;;;;;;24.63;10.90;;;5.60;99.90;;;;;;5047258;28;20090;-61
2021/12/04 08:42:47;;;;;;;24.00;11.15;;;5.60;99.90;;;;;;5046846;28;20446;-63
2021/12/04 08:45:15;;;;;;;21.30;10.50;;;5.60;99.90;;;;;;5046629;28;20705;-60
2021/12/04 08:47:40;;;;;;;25.85;11.52;;;5.60;99.90;;;;;;5046782;28;20033;-60
2021/12/04 08:50:10;;;;;;;28.35;11.40;;;5.60;99.90;;;;;;5047190;28;20037;-58
2021/12/04 08:52:37;;;;;;;25.55;11.50;;;5.60;99.90;;;;;;5046526;28;20119;-60
2021/12/04 08:55:05;;;;;;;25.33;11.38;;;5.60;99.90;;;;;;5046898;28;20033;-60
2021/12/04 08:57:30;;;;;;;30.27;11.88;;;5.70;99.90;;;;;;5046576;28;20044;-61
2021/12/04 08:59:56;;;;;;;24.15;11.02;;;5.70;99.90;;;;;;5046916;28;20043;-60
2021/12/04 09:02:22;;;;;;;24.98;11.35;;;5.70;99.90;;;;;;5046508;28;20429;-61
2021/12/04 09:04:48;;;;;;;29.02;12.25;;;5.70;99.90;;;;;;5046603;28;20072;-61
2021/12/04 09:07:16;;;;;;;34.85;12.45;;;5.70;99.90;;;;;;5046389;28;20489;-61
2021/12/04 09:09:42;;;;;;;27.45;11.02;;;5.70;99.90;;;;;;5046604;28;20116;-61
2021/12/04 09:12:11;;;;;;;25.38;11.18;;;5.80;99.90;;;;;;5046781;28;20140;-60
2021/12/04 09:14:42;;;;;;;26.98;11.57;;;5.80;99.90;;;;;;5046680;28;20114;-61
2021/12/04 09:17:10;;;;;;;24.02;10.77;;;5.80;99.90;;;;;;5028973;28;20150;-61
2021/12/04 09:19:35;;;;;;;22.70;9.75;;;5.80;99.90;;;;;;5046247;28;20044;-60
2021/12/04 09:22:03;;;;;;;24.45;9.90;;;5.80;99.90;;;;;;5046441;28;20526;-60
2021/12/04 09:24:37;;;;;;;22.50;10.25;;;5.90;99.90;;;;;;5046617;28;20124;-60
2021/12/04 09:27:33;;;;;;;23.25;10.60;;;5.90;99.90;;;;;;5046369;28;20040;-59
2021/12/04 09:30:14;;;;;;;31.70;11.75;;;5.90;99.90;;;;;;5046362;28;20090;-60
2021/12/04 09:35:49;;;;;;;29.52;10.75;;;6.00;99.90;;;;;;5050300;28;20049;-60
2021/12/04 10:02:18;;;;;;;;;;;6.10;99.90;;;;;;5050039;28;20045;-59
2021/12/04 10:19:15;;;;;;;32.50;12.48;;;6.00;99.90;;;;;;5049438;28;20119;-59
2021/12/04 10:21:52;;;;;;;36.58;13.02;;;6.10;99.90;;;;;;5048389;28;20081;-60
2021/12/04 10:33:15;;;;;;;28.45;12.13;;;6.20;99.90;;;;;;5052478;28;20076;-60
2021/12/04 10:35:42;;;;;;;30.73;13.15;;;6.20;99.90;;;;;;5069255;28;20040;-60
2021/12/04 10:38:15;;;;;;;33.63;13.93;;;6.20;99.90;;;;;;5068975;28;20093;-60
2021/12/04 10:40:43;;;;;;;34.70;14.35;;;6.20;99.90;;;;;;5069075;28;20055;-60
2021/12/04 10:43:17;;;;;;;31.73;13.98;;;6.20;99.90;;;;;;5067255;28;20041;-60
2021/12/04 10:45:49;;;;;;;36.90;15.52;;;6.20;99.90;;;;;;5050637;28;20124;-60
2021/12/04 10:48:19;;;;;;;40.92;16.15;;;6.30;99.90;;;;;;5050797;28;20041;-60
2021/12/04 10:53:25;;;;;;;43.97;17.92;;;6.20;99.90;;;;;;5068475;28;20124;-60
2021/12/04 10:56:05;;;;;;;43.40;17.52;;;6.20;99.90;;;;;;5050654;28;20384;-60
2021/12/04 10:59:04;;;;;;;44.85;17.10;;;6.20;99.90;;;;;;5069035;28;20048;-60
2021/12/04 11:02:04;;;;;;;54.30;19.08;;;6.30;99.90;;;;;;5068280;28;20189;-61
2021/12/04 11:04:49;;;;;;;42.03;18.23;;;6.40;99.90;;;;;;5068309;28;20676;-60
2021/12/04 11:26:35;;;;;;;57.15;21.23;;;6.30;99.90;;;;;;5066874;28;20052;-60
2021/12/04 11:40:20;;;;;;;75.10;23.95;;;6.20;99.90;;;;;;5067933;28;20751;-60
2021/12/04 11:42:52;;;;;;;65.03;23.33;;;6.20;99.90;;;;;;5067364;28;20036;-60
2021/12/04 11:45:26;;;;;;;65.18;23.38;;;6.20;99.90;;;;;;5067288;28;20040;-60
2021/12/04 11:47:55;;;;;;;62.90;22.70;;;6.30;99.90;;;;;;5067745;28;20044;-60
2021/12/04 11:50:30;;;;;;;68.00;22.55;;;6.30;99.90;;;;;;5067701;28;20055;-60
2021/12/04 11:53:02;;;;;;;78.78;25.50;;;6.30;99.90;;;;;;5067454;28;20683;-60
2021/12/04 11:55:29;;;;;;;;;;;6.30;99.90;;;;;;5067221;28;20036;-59
2021/12/04 11:57:55;;;;;;;77.53;24.70;;;6.30;99.90;;;;;;5067109;28;19927;-60
2021/12/04 12:00:25;;;;;;;78.57;24.80;;;6.30;99.90;;;;;;5067291;28;20162;-59
2021/12/04 12:03:07;;;;;;;82.38;26.38;;;6.40;99.90;;;;;;5067275;28;20039;-60
2021/12/04 12:05:44;;;;;;;79.70;24.75;;;6.40;99.90;;;;;;5067274;28;20048;-60
2021/12/04 12:08:25;;;;;;;73.00;24.65;;;6.50;99.90;;;;;;5066984;28;20044;-60
2021/12/04 12:10:54;;;;;;;75.97;25.00;;;6.60;99.90;;;;;;5067525;28;20044;-59
2021/12/04 12:13:31;;;;;;;66.18;23.15;;;6.60;99.90;;;;;;5067001;28;20041;-60
2021/12/04 12:16:07;;;;;;;65.63;23.52;;;6.60;99.90;;;;;;5067022;28;20622;-61
2021/12/04 12:18:57;;;;;;;62.35;21.45;;;6.60;99.90;;;;;;5067242;28;20055;-61
2021/12/04 12:21:46;;;;;;;57.00;21.13;;;6.60;99.90;;;;;;5067032;28;20036;-63
2021/12/04 12:38:34;;;;;;;64.53;24.40;;;6.40;99.90;;;;;;5066308;28;20044;-61
2021/12/04 12:41:08;;;;;;;50.25;21.17;;;6.30;99.90;;;;;;5048258;28;20048;-60
2021/12/04 12:43:59;;;;;;;54.45;22.85;;;6.30;99.90;;;;;;5066734;28;20072;-61
2021/12/04 12:46:36;;;;;;;66.30;23.95;;;6.20;99.90;;;;;;5050594;28;20134;-61
2021/12/04 12:49:04;;;;;;;58.10;23.77;;;6.20;99.90;;;;;;5069922;28;20044;-61
2021/12/04 12:51:35;;;;;;;69.13;24.92;;;6.20;99.90;;;;;;5070083;28;20032;-60
2021/12/04 12:54:05;;;;;;;62.45;23.27;;;6.30;99.90;;;;;;5069710;28;20033;-61
2021/12/04 12:56:33;;;;;;;67.25;23.90;;;6.30;99.90;;;;;;5065879;28;20079;-60
2021/12/04 13:12:50;;;;;;;62.42;24.55;;;6.40;99.90;;;;;;5053550;28;20044;-60
2021/12/04 13:15:30;;;;;;;56.60;23.65;;;6.40;99.90;;;;;;5053441;28;20044;-60
2021/12/04 13:18:07;;;;;;;58.03;23.58;;;6.40;99.90;;;;;;5053549;28;20043;-60
2021/12/04 13:20:33;;;;;;;61.28;24.67;;;6.30;99.90;;;;;;5053372;28;20048;-60
2021/12/04 13:22:58;;;;;;;64.65;25.23;;;6.30;99.90;;;;;;5053745;28;20032;-60
2021/12/04 13:25:24;;;;;;;62.30;24.40;;;6.30;99.90;;;;;;5053175;28;20102;-60
2021/12/04 13:30:16;;;;;;;55.85;24.35;;;6.30;99.90;;;;;;5053491;28;20219;-60
2021/12/04 13:32:45;;;;;;;60.45;23.25;;;6.30;99.90;;;;;;5068023;28;20040;-61
2021/12/04 13:35:15;;;;;;;59.35;24.55;;;6.30;99.90;;;;;;5073315;28;20047;-60
2021/12/04 13:37:41;;;;;;;59.35;25.13;;;6.30;99.90;;;;;;5073021;28;20041;-60
2021/12/04 13:40:10;;;;;;;57.10;23.42;;;6.40;99.90;;;;;;5072852;28;20076;-60
2021/12/04 13:42:38;;;;;;;59.63;23.83;;;6.30;99.90;;;;;;5073069;28;20040;-61
2021/12/04 13:45:07;;;;;;;59.97;24.25;;;6.30;99.90;;;;;;5073303;28;20115;-60
2021/12/04 13:47:32;;;;;;;53.67;23.38;;;6.30;99.90;;;;;;5072980;28;20490;-60
2021/12/04 13:50:00;;;;;;;54.10;23.67;;;6.30;99.90;;;;;;5072858;28;20041;-61
2021/12/04 13:52:31;;;;;;;59.42;24.52;;;6.40;99.90;;;;;;5072678;28;20033;-60
2021/12/04 13:55:00;;;;;;;54.88;23.25;;;6.30;99.90;;;;;;5052277;28;20047;-60
2021/12/04 13:57:26;;;;;;;60.55;22.77;;;6.30;99.90;;;;;;5052547;28;20552;-59
2021/12/04 14:00:00;;;;;;;59.75;23.98;;;6.30;99.90;;;;;;5059291;28;20036;-58
2021/12/04 14:02:29;;;;;;;53.10;22.00;;;6.30;99.90;;;;;;5072264;28;20038;-60
2021/12/04 14:04:57;;;;;;;53.80;22.00;;;6.30;99.90;;;;;;5072579;28;20037;-60
2021/12/04 14:07:23;;;;;;;58.20;23.42;;;6.30;99.90;;;;;;5055099;28;20041;-60
2021/12/04 14:09:49;;;;;;;57.10;22.48;;;6.30;99.90;;;;;;5034574;28;20048;-60
2021/12/04 14:12:14;;;;;;;51.47;22.73;;;6.30;99.90;;;;;;5052034;28;20056;-60
2021/12/04 14:14:40;;;;;;;50.53;21.85;;;6.20;99.90;;;;;;5052546;28;20061;-60
2021/12/04 14:17:09;;;;;;;54.50;22.88;;;6.30;99.90;;;;;;5052452;28;20526;-60
2021/12/04 14:19:36;;;;;;;52.17;21.58;;;6.30;99.90;;;;;;5051338;28;20037;-60
2021/12/04 14:22:07;;;;;;;52.00;22.88;;;6.20;99.90;;;;;;5052196;28;20049;-60
2021/12/04 14:24:42;;;;;;;52.72;21.67;;;6.20;99.90;;;;;;5052345;28;20127;-60
2021/12/04 14:27:10;;;;;;;52.35;22.13;;;6.30;99.90;;;;;;5051995;28;20519;-60
2021/12/04 14:29:40;;;;;;;54.88;21.60;;;6.30;99.90;;;;;;5052209;28;20033;-60
2021/12/04 14:32:07;;;;;;;54.08;21.73;;;6.30;99.90;;;;;;5061715;28;20036;-61
2021/12/04 14:34:33;;;;;;;54.55;23.00;;;6.30;99.90;;;;;;5072369;28;20040;-60
2021/12/04 14:37:14;;;;;;;51.70;22.08;;;6.30;99.90;;;;;;5072042;28;20418;-60
2021/12/04 14:39:41;;;;;;;;;;;6.30;99.90;;;;;;5072518;28;20040;-60
2021/12/04 14:42:16;;;;;;;53.47;22.02;;;6.20;99.90;;;;;;5071878;28;20077;-60
2021/12/04 14:44:46;;;;;;;57.30;23.92;;;6.20;99.90;;;;;;5071761;28;20553;-60
2021/12/04 14:47:12;;;;;;;57.83;23.40;;;6.20;99.90;;;;;;5071951;28;20106;-60
2021/12/04 14:49:40;;;;;;;55.10;24.40;;;6.20;99.90;;;;;;5071971;28;20075;-60
2021/12/04 14:52:07;;;;;;;56.25;22.75;;;6.20;99.90;;;;;;5071597;28;20037;-59
2021/12/04 14:54:35;;;;;;;55.63;22.83;;;6.20;99.90;;;;;;5071668;28;20116;-61
2021/12/04 14:57:11;;;;;;;56.15;23.10;;;6.20;99.90;;;;;;5071779;28;20037;-61
2021/12/04 14:59:36;;;;;;;59.63;22.83;;;6.20;99.90;;;;;;5071918;28;20044;-61
2021/12/04 15:02:12;;;;;;;60.50;22.73;;;6.20;99.90;;;;;;5071443;28;20047;-61
2021/12/04 15:04:40;;;;;;;61.70;23.17;;;6.20;99.90;;;;;;5071313;28;20123;-61
2021/12/04 15:07:05;;;;;;;54.95;23.67;;;6.10;99.90;;;;;;5071436;28;20044;-61
2021/12/04 15:09:31;;;;;;;55.00;24.25;;;6.20;99.90;;;;;;5071373;28;20044;-61
2021/12/04 15:11:59;;;;;;;55.33;23.08;;;6.10;99.90;;;;;;5071052;28;20056;-61
2021/12/04 15:14:32;;;;;;;58.28;23.33;;;6.20;99.90;;;;;;5071468;28;20036;-61
2021/12/04 15:17:05;;;;;;;52.88;23.95;;;6.20;99.90;;;;;;5071403;28;20048;-61
2021/12/04 15:19:40;;;;;;;53.58;23.08;;;6.20;99.90;;;;;;5071411;28;20040;-61
2021/12/04 15:22:12;;;;;;;49.85;23.20;;;6.20;99.90;;;;;;5052851;28;20379;-61
2021/12/04 15:24:39;;;;;;;51.22;24.13;;;6.20;99.90;;;;;;5053392;28;20087;-61
2021/12/04 15:27:15;;;;;;;42.83;21.20;;;6.20;99.90;;;;;;5071011;28;20047;-60
2021/12/04 15:29:46;;;;;;;53.75;22.92;;;6.20;99.90;;;;;;5053325;28;20037;-61
2021/12/04 15:32:14;;;;;;;50.63;23.13;;;6.20;99.90;;;;;;5060123;28;20048;-60
2021/12/04 15:34:48;;;;;;;46.90;22.35;;;6.20;99.90;;;;;;5050792;28;20029;-60
2021/12/04 15:37:24;;;;;;;42.40;21.60;;;6.20;99.90;;;;;;5033106;28;20073;-60
2021/12/04 15:39:50;;;;;;;45.88;21.73;;;6.20;99.90;;;;;;5033162;28;20040;-61
2021/12/04 15:47:26;;;;;;;43.88;21.35;;;6.20;99.90;;;;;;5050421;28;20120;-61
2021/12/04 15:53:03;;;;;;;41.13;20.85;;;6.20;99.90;;;;;;5050453;28;20045;-61
2021/12/04 15:55:35;;;;;;;40.60;20.85;;;6.20;99.90;;;;;;5050470;28;20037;-61
2021/12/04 15:58:03;;;;;;;42.60;21.42;;;6.20;99.90;;;;;;5032824;28;20103;-61